Time;durP1;ratioP1;P1;durP2;ratioP2;P2;SDS_P1;SDS_P2;PMS_P1;PMS_P2;Temp;Humidity;BMP_temperature;BMP_pressure;BME280_temperature;BME280_humidity;BME280_pressure;Samples;Min_cycle;Max_cycle;Signal;HPM_P1;HPM_P2
2022/11/29 00:00:31;;;;;;;37.25;28.83;;;;;;;3.32;100.00;95566.03;5086166;28;20027;-58
2022/11/29 00:02:56;;;;;;;35.42;28.77;;;;;;;3.32;100.00;95564.25;5086531;28;20024;-58
2022/11/29 00:05:22;;;;;;;36.00;28.98;;;;;;;3.32;100.00;95569.44;5080125;28;20016;-58
2022/11/29 00:07:48;;;;;;;39.25;29.85;;;;;;;3.33;100.00;95567.69;5087658;28;20031;-59
2022/11/29 00:10:13;;;;;;;35.58;30.02;;;;;;;3.32;100.00;95559.03;5083529;28;20032;-59
2022/11/29 00:12:39;;;;;;;38.42;30.70;;;;;;;3.33;100.00;95555.50;5083889;28;20028;-74
2022/11/29 00:15:05;;;;;;;37.20;29.95;;;;;;;3.31;100.00;95562.56;5084517;28;20110;-73
2022/11/29 00:17:30;;;;;;;31.88;26.58;;;;;;;3.29;100.00;95552.25;5074175;28;20031;-73
2022/11/29 00:19:55;;;;;;;34.55;26.48;;;;;;;3.29;100.00;95552.25;5079118;28;20032;-73
2022/11/29 00:22:23;;;;;;;30.20;25.42;;;;;;;3.30;100.00;95551.31;5081839;28;20120;-74
2022/11/29 00:24:49;;;;;;;31.13;25.60;;;;;;;3.34;100.00;95553.75;5083337;28;20023;-73
2022/11/29 00:27:14;;;;;;;36.03;29.67;;;;;;;3.35;100.00;95555.41;5079727;28;20373;-74
2022/11/29 00:29:40;;;;;;;30.65;25.58;;;;;;;3.36;100.00;95554.47;5077323;28;20030;-74
2022/11/29 00:32:05;;;;;;;30.42;25.42;;;;;;;3.32;100.00;95551.22;5085380;28;20067;-61
2022/11/29 00:34:30;;;;;;;30.92;25.50;;;;;;;3.32;100.00;95546.03;5076925;28;20052;-61
2022/11/29 00:36:56;;;;;;;27.70;23.05;;;;;;;3.32;100.00;95548.63;5079761;28;20020;-61
2022/11/29 00:39:21;;;;;;;21.25;18.42;;;;;;;3.32;100.00;95540.00;5078506;28;21262;-61
2022/11/29 00:41:47;;;;;;;25.55;19.77;;;;;;;3.34;100.00;95544.16;5082547;28;20108;-61
2022/11/29 00:44:12;;;;;;;25.75;21.73;;;;;;;3.37;100.00;95543.13;5080222;28;20038;-61
2022/11/29 00:46:38;;;;;;;29.35;25.75;;;;;;;3.38;100.00;95548.22;5080111;28;20063;-61
2022/11/29 00:49:04;;;;;;;29.27;24.65;;;;;;;3.38;100.00;95543.00;5084450;28;20024;-62
2022/11/29 00:51:29;;;;;;;25.95;22.02;;;;;;;3.36;100.00;95538.88;5080681;28;20641;-61
2022/11/29 00:53:54;;;;;;;36.38;25.38;;;;;;;3.35;100.00;95540.63;5080235;28;20028;-61
2022/11/29 00:56:20;;;;;;;38.00;25.92;;;;;;;3.36;100.00;95544.88;5082279;28;20500;-61
2022/11/29 00:58:47;;;;;;;37.10;26.48;;;;;;;3.37;100.00;95538.75;5084871;28;20027;-62
2022/11/29 01:01:12;;;;;;;30.35;22.15;;;;;;;3.39;100.00;95538.66;5081819;28;20055;-61
2022/11/29 01:03:38;;;;;;;36.55;28.52;;;;;;;3.42;100.00;95541.06;5086896;28;20157;-61
2022/11/29 01:06:06;;;;;;;34.38;26.10;;;;;;;3.43;100.00;95545.31;5086418;28;20031;-61
2022/11/29 01:08:32;;;;;;;33.90;25.60;;;;;;;3.44;100.00;95547.84;5083338;28;20021;-61
2022/11/29 01:11:20;;;;;;;30.30;24.25;;;;;;;3.43;100.00;95546.16;5083965;28;20065;-61
2022/11/29 01:13:46;;;;;;;31.17;23.55;;;;;;;3.43;100.00;95543.56;5085232;28;20028;-61
2022/11/29 01:16:13;;;;;;;37.92;25.17;;;;;;;3.42;100.00;95546.25;5085817;28;20020;-61
2022/11/29 01:18:39;;;;;;;30.80;22.55;;;;;;;3.41;100.00;95542.81;5081984;28;20085;-61
2022/11/29 01:21:10;;;;;;;32.28;24.73;;;;;;;3.40;100.00;95541.13;5084279;28;20067;-61
2022/11/29 01:23:36;;;;;;;26.13;20.90;;;;;;;3.40;100.00;95541.13;5083341;28;20016;-61
2022/11/29 01:26:12;;;;;;;29.55;20.38;;;;;;;3.42;100.00;95547.06;5080392;28;20027;-61
2022/11/29 01:28:38;;;;;;;26.73;19.38;;;;;;;3.43;100.00;95540.97;5083143;28;20024;-66
2022/11/29 01:31:08;;;;;;;30.40;22.20;;;;;;;3.46;100.00;95546.91;5085246;28;20110;-60
2022/11/29 01:33:34;;;;;;;30.13;20.25;;;;;;;3.46;100.00;95546.91;5086705;28;20058;-58
2022/11/29 01:35:59;;;;;;;30.65;21.10;;;;;;;3.46;100.00;95544.28;5083143;28;20558;-58
2022/11/29 01:38:24;;;;;;;37.10;22.98;;;;;;;3.46;100.00;95550.31;5087182;28;20028;-58
2022/11/29 01:41:04;;;;;;;37.65;23.80;;;;;;;3.44;100.00;95547.84;5088420;28;20552;-59
2022/11/29 01:43:30;;;;;;;40.67;23.73;;;;;;;3.48;100.00;95545.03;5078529;28;20125;-58
2022/11/29 01:45:56;;;;;;;47.50;26.20;;;;;;;3.51;100.00;95544.81;5081530;28;20505;-58
2022/11/29 01:48:25;;;;;;;50.92;27.23;;;;;;;3.54;100.00;95539.41;5084482;28;20035;-61
2022/11/29 01:50:53;;;;;;;52.40;30.30;;;;;;;3.56;100.00;95542.72;5078697;28;20039;-59
2022/11/29 01:53:19;;;;;;;60.65;32.17;;;;;;;3.56;100.00;95542.72;5082367;28;20065;-59
2022/11/29 01:55:49;;;;;;;47.83;30.05;;;;;;;3.57;100.00;95544.41;5088644;28;20535;-59
2022/11/29 01:58:15;;;;;;;35.25;22.50;;;;;;;3.56;100.00;95545.34;5083361;28;20440;-59
2022/11/29 02:00:40;;;;;;;32.65;23.23;;;;;;;3.55;100.00;95535.84;5082867;28;20039;-58
2022/11/29 02:03:12;;;;;;;25.42;18.83;;;;;;;3.52;100.00;95533.47;5086475;28;20025;-57
2022/11/29 02:05:44;;;;;;;23.38;17.60;;;;;;;3.53;100.00;95541.16;5080605;28;20024;-57
2022/11/29 02:08:12;;;;;;;20.08;16.17;;;;;;;3.52;100.00;95541.28;5081454;28;20473;-66
2022/11/29 02:11:10;;;;;;;28.60;24.90;;;;;;;3.53;100.00;95538.56;5077383;28;20053;-68
2022/11/29 02:14:02;;;;;;;23.08;18.50;;;;;;;3.52;100.00;95541.28;5083661;28;20050;-68
2022/11/29 02:16:37;;;;;;;16.80;15.13;;;;;;;3.52;100.00;95531.69;5086492;28;20025;-67
2022/11/29 02:19:40;;;;;;;17.08;14.25;;;;;;;3.55;100.00;95541.06;5082401;28;20449;-68
2022/11/29 02:22:16;;;;;;;14.70;13.15;;;;;;;3.56;100.00;95535.78;5082753;28;20027;-68
2022/11/29 02:25:33;;;;;;;16.63;14.85;;;;;;;3.55;100.00;95536.72;5079501;28;20557;-68
2022/11/29 02:28:07;;;;;;;16.73;14.37;;;;;;;3.55;100.00;95535.84;5059609;28;20093;-73
2022/11/29 02:30:51;;;;;;;16.05;14.13;;;;;;;3.55;100.00;95530.66;5085498;28;20505;-66
2022/11/29 02:33:57;;;;;;;15.70;14.10;;;;;;;3.53;100.00;95529.94;5075171;28;20041;-66
2022/11/29 02:36:25;;;;;;;;;;;;;;;3.53;100.00;95522.13;5082591;28;20046;-66
2022/11/29 02:39:09;;;;;;;14.90;13.13;;;;;;;3.54;100.00;95518.56;5083013;28;19950;-66
2022/11/29 02:41:34;;;;;;;15.13;13.57;;;;;;;3.54;100.00;95522.03;5080274;28;20405;-66
2022/11/29 02:44:21;;;;;;;15.52;13.85;;;;;;;3.53;100.00;95522.94;5078067;28;20028;-66
2022/11/29 02:47:05;;;;;;;17.95;14.10;;;;;;;3.52;100.00;95515.25;5086404;28;20024;-60
2022/11/29 02:49:49;;;;;;;15.77;14.10;;;;;;;3.51;100.00;95519.59;5079641;28;20033;-60
2022/11/29 02:52:28;;;;;;;17.70;15.13;;;;;;;3.51;100.00;95514.41;5081465;28;20367;-60
2022/11/29 02:55:16;;;;;;;16.08;14.48;;;;;;;3.48;100.00;95504.19;5083479;28;20029;-60
2022/11/29 02:58:13;;;;;;;16.23;14.25;;;;;;;3.49;100.00;95508.47;5083531;28;20020;-60
2022/11/29 03:00:43;;;;;;;;;;;;;;;3.50;100.00;95504.91;5077631;28;20105;-60
2022/11/29 03:03:31;;;;;;;16.52;14.90;;;;;;;3.49;100.00;95510.25;5084131;28;20363;-60
2022/11/29 03:06:19;;;;;;;15.48;13.98;;;;;;;3.44;100.00;95508.78;5082446;28;20028;-59
2022/11/29 03:09:05;;;;;;;17.10;15.30;;;;;;;3.45;100.00;95504.41;5080571;28;20035;-60
2022/11/29 03:11:39;;;;;;;17.10;14.63;;;;;;;3.43;100.00;95507.13;5085200;28;20026;-60
2022/11/29 03:14:20;;;;;;;16.58;14.77;;;;;;;3.40;100.00;95506.50;5083683;28;20024;-61
2022/11/29 03:17:07;;;;;;;17.15;14.50;;;;;;;3.38;100.00;95498.75;5078056;28;20039;-60
2022/11/29 03:19:49;;;;;;;18.73;14.52;;;;;;;3.39;100.00;95513.44;5079855;28;20571;-60
2022/11/29 03:22:42;;;;;;;14.52;13.13;;;;;;;3.39;100.00;95503.03;5078974;28;20063;-59
2022/11/29 03:25:35;;;;;;;16.00;14.40;;;;;;;3.37;100.00;95504.91;5080687;28;20143;-64
2022/11/29 03:28:04;;;;;;;16.38;14.88;;;;;;;3.36;100.00;95510.22;5083163;28;20023;-68
2022/11/29 03:30:33;;;;;;;17.85;16.05;;;;;;;3.34;100.00;95515.53;5079633;28;20115;-68
2022/11/29 03:33:12;;;;;;;15.73;14.13;;;;;;;3.36;100.00;95511.06;5088180;28;20044;-68
2022/11/29 03:36:03;;;;;;;15.25;13.85;;;;;;;3.37;100.00;95517.09;5080225;28;20030;-67
2022/11/29 03:38:41;;;;;;;16.52;14.93;;;;;;;3.36;100.00;95516.25;5083910;28;20020;-68
2022/11/29 03:41:19;;;;;;;12.40;11.30;;;;;;;3.36;100.00;95521.47;5086969;28;20039;-68
2022/11/29 03:44:06;;;;;;;14.10;12.27;;;;;;;3.38;100.00;95514.38;5087076;28;20025;-67
2022/11/29 03:46:51;;;;;;;12.68;11.27;;;;;;;3.44;100.00;95514.00;5062841;28;20024;-67
2022/11/29 03:49:31;;;;;;;10.63;9.52;;;;;;;3.42;100.00;95520.22;5082957;28;20410;-61
2022/11/29 03:52:11;;;;;;;8.38;7.32;;;;;;;3.39;100.00;95526.47;5085748;28;20421;-61
2022/11/29 03:54:39;;;;;;;10.73;9.50;;;;;;;3.41;100.00;95521.97;5080750;28;20478;-62
2022/11/29 03:57:05;;;;;;;16.67;14.95;;;;;;;3.49;100.00;95513.66;5084592;28;20035;-61
2022/11/29 04:00:02;;;;;;;16.73;14.65;;;;;;;3.50;100.00;95522.31;5080620;28;20012;-61
2022/11/29 04:02:52;;;;;;;20.25;18.15;;;;;;;3.48;100.00;95521.59;5081553;28;20023;-61
2022/11/29 04:05:52;;;;;;;20.88;18.70;;;;;;;3.47;100.00;95525.94;5084478;28;20031;-73
2022/11/29 04:08:26;;;;;;;23.17;19.00;;;;;;;3.51;100.00;95524.81;5088603;28;20020;-60
2022/11/29 04:11:16;;;;;;;20.20;18.27;;;;;;;3.46;100.00;95531.28;5083047;28;20032;-60
2022/11/29 04:14:19;;;;;;;19.80;17.23;;;;;;;3.49;100.00;95533.66;5082359;28;20032;-60
2022/11/29 04:17:03;;;;;;;21.95;19.60;;;;;;;3.44;100.00;95532.22;5084042;28;20028;-60
2022/11/29 04:20:04;;;;;;;19.42;17.55;;;;;;;3.43;100.00;95530.56;5081605;28;20015;-60
2022/11/29 04:22:38;;;;;;;19.73;17.73;;;;;;;3.42;100.00;95533.25;5083810;28;20028;-60
2022/11/29 04:25:20;;;;;;;20.75;17.70;;;;;;;3.41;100.00;95540.19;5091438;28;20027;-59
2022/11/29 04:27:58;;;;;;;18.55;16.63;;;;;;;3.43;100.00;95533.16;5091034;28;20020;-74
2022/11/29 04:30:25;;;;;;;17.45;15.85;;;;;;;3.46;100.00;95533.88;5092653;28;20027;-73
2022/11/29 04:32:53;;;;;;;19.15;16.50;;;;;;;3.46;100.00;95526.06;5090138;28;20088;-73
2022/11/29 04:35:56;;;;;;;17.67;15.88;;;;;;;3.46;100.00;95539.09;5088521;28;20032;-73
2022/11/29 04:38:40;;;;;;;16.08;14.57;;;;;;;3.42;100.00;95531.47;5091509;28;20417;-72
2022/11/29 04:41:50;;;;;;;17.02;15.23;;;;;;;3.42;100.00;95534.06;5089806;28;20020;-73
2022/11/29 04:44:20;;;;;;;15.18;13.57;;;;;;;3.44;100.00;95537.41;5080518;28;20071;-73
2022/11/29 04:47:13;;;;;;;16.30;14.30;;;;;;;3.44;100.00;95534.81;5093763;28;20085;-66
2022/11/29 04:49:56;;;;;;;14.63;13.13;;;;;;;3.46;100.00;95533.88;5088792;28;20019;-66
2022/11/29 04:52:34;;;;;;;14.77;13.43;;;;;;;3.47;100.00;95544.19;5091477;28;20028;-67
2022/11/29 04:55:27;;;;;;;15.50;13.93;;;;;;;3.48;100.00;95539.81;5094554;28;20028;-69
2022/11/29 04:58:20;;;;;;;15.30;13.80;;;;;;;3.44;100.00;95547.84;5096131;28;20081;-67
2022/11/29 05:01:00;;;;;;;18.15;16.27;;;;;;;3.40;100.00;95543.75;5090774;28;20137;-59
2022/11/29 05:03:41;;;;;;;14.90;13.40;;;;;;;3.42;100.00;95541.06;5084454;28;20413;-73
2022/11/29 05:06:24;;;;;;;13.82;12.48;;;;;;;3.44;100.00;95539.19;5086477;28;20122;-67
2022/11/29 05:09:04;;;;;;;14.55;11.80;;;;;;;3.48;100.00;95547.63;5084669;28;20031;-65
2022/11/29 05:11:32;;;;;;;12.63;11.48;;;;;;;3.46;100.00;95547.72;5089437;28;20020;-66
2022/11/29 05:14:07;;;;;;;13.52;11.85;;;;;;;3.44;100.00;95546.97;5083612;28;20575;-65
2022/11/29 05:16:41;;;;;;;;;;;;;;;3.42;100.00;95541.88;5087146;28;20039;-65
2022/11/29 05:19:27;;;;;;;14.57;13.18;;;;;;;3.44;100.00;95547.84;5089157;28;19907;-66
2022/11/29 05:22:10;;;;;;;13.20;11.90;;;;;;;3.48;100.00;95552.84;5091759;28;20044;-61
2022/11/29 05:24:56;;;;;;;12.60;11.48;;;;;;;3.51;100.00;95550.84;5087914;28;20039;-62
2022/11/29 05:27:30;;;;;;;15.03;13.63;;;;;;;3.51;100.00;95547.41;5090428;28;20560;-61
2022/11/29 05:30:03;;;;;;;16.38;14.80;;;;;;;3.54;100.00;95547.22;5084394;28;20082;-61
2022/11/29 05:32:48;;;;;;;14.60;13.07;;;;;;;3.55;100.00;95546.28;5086625;28;20016;-62
2022/11/29 05:35:48;;;;;;;12.45;11.30;;;;;;;3.55;100.00;95554.09;5085712;28;20046;-62
2022/11/29 05:38:13;;;;;;;13.65;11.90;;;;;;;3.55;100.00;95554.09;5089395;28;20085;-61
2022/11/29 05:40:47;;;;;;;14.20;11.13;;;;;;;3.54;100.00;95550.66;5086939;28;20060;-73
2022/11/29 05:43:31;;;;;;;13.65;12.30;;;;;;;3.53;100.00;95553.34;5087112;28;20035;-60
2022/11/29 05:46:32;;;;;;;15.45;13.98;;;;;;;3.54;100.00;95560.22;5088426;28;20017;-61
2022/11/29 05:49:35;;;;;;;17.77;15.95;;;;;;;3.52;100.00;95564.69;5043916;28;20433;-60
2022/11/29 05:52:12;;;;;;;22.42;20.02;;;;;;;3.53;100.00;95559.38;5083062;28;20401;-61
2022/11/29 05:54:51;;;;;;;22.60;19.75;;;;;;;3.53;100.00;95558.56;5079620;28;20042;-61
2022/11/29 05:57:32;;;;;;;20.80;18.65;;;;;;;3.54;100.00;95568.88;5083737;28;20032;-61
2022/11/29 06:00:00;;;;;;;21.23;18.92;;;;;;;3.53;100.00;95568.97;5084656;28;20028;-72
2022/11/29 06:02:25;;;;;;;16.52;14.95;;;;;;;3.52;100.00;95570.72;5085768;28;20050;-60
2022/11/29 06:05:16;;;;;;;17.15;13.25;;;;;;;3.55;100.00;95572.31;5088410;28;20517;-60
2022/11/29 06:07:52;;;;;;;13.25;12.02;;;;;;;3.55;100.00;95577.50;5084474;28;20047;-60
2022/11/29 06:10:19;;;;;;;12.07;11.00;;;;;;;3.55;100.00;95572.31;5078336;28;20024;-60
2022/11/29 06:13:17;;;;;;;12.15;11.10;;;;;;;3.56;100.00;95572.22;5081614;28;20713;-60
2022/11/29 06:16:13;;;;;;;11.45;10.45;;;;;;;3.55;100.00;95582.72;5082832;28;20039;-60
2022/11/29 06:19:02;;;;;;;13.55;11.27;;;;;;;3.56;100.00;95579.19;5084991;28;20464;-67
2022/11/29 06:21:40;;;;;;;11.82;10.73;;;;;;;3.57;100.00;95576.47;5084593;28;20020;-68
2022/11/29 06:24:23;;;;;;;14.38;13.18;;;;;;;3.55;100.00;95578.34;5072209;28;20015;-68
2022/11/29 06:27:17;;;;;;;12.93;11.77;;;;;;;3.55;100.00;95573.16;5080575;28;20394;-68
2022/11/29 06:30:10;;;;;;;12.30;11.20;;;;;;;3.54;100.00;95584.50;5019470;28;20041;-68
2022/11/29 06:32:49;;;;;;;11.90;10.70;;;;;;;3.55;100.00;95587.91;5084924;28;20374;-68
2022/11/29 06:35:32;;;;;;;12.30;11.18;;;;;;;3.53;100.00;95587.19;5085613;28;20028;-68
2022/11/29 06:38:02;;;;;;;11.23;10.13;;;;;;;3.53;100.00;95582.00;5088887;28;20024;-66
2022/11/29 06:40:28;;;;;;;12.27;10.02;;;;;;;3.52;100.00;95586.34;5085062;28;20058;-61
2022/11/29 06:42:53;;;;;;;12.20;11.10;;;;;;;3.51;100.00;95583.84;5084278;28;20060;-61
2022/11/29 06:45:20;;;;;;;11.13;10.13;;;;;;;3.52;100.00;95586.34;5082845;28;20107;-61
2022/11/29 06:47:56;;;;;;;11.18;10.05;;;;;;;3.53;100.00;95589.78;5083267;28;20032;-62
2022/11/29 06:50:37;;;;;;;12.02;10.82;;;;;;;3.53;100.00;95592.41;5086465;28;20106;-62
2022/11/29 06:53:08;;;;;;;11.65;10.65;;;;;;;3.55;100.00;95599.19;5083648;28;20035;-62
2022/11/29 06:56:20;;;;;;;14.95;13.07;;;;;;;3.55;100.00;95603.53;5082916;28;20044;-62
2022/11/29 06:59:04;;;;;;;10.98;10.00;;;;;;;3.56;100.00;95603.47;5025146;28;20043;-60
2022/11/29 07:01:35;;;;;;;12.40;11.13;;;;;;;3.58;100.00;95601.59;5087515;28;20028;-64
2022/11/29 07:04:29;;;;;;;13.02;11.75;;;;;;;3.59;100.00;95610.22;5087860;28;20038;-62
2022/11/29 07:06:55;;;;;;;11.77;10.57;;;;;;;3.61;100.00;95613.53;5088219;28;20031;-64
2022/11/29 07:09:25;;;;;;;11.57;10.43;;;;;;;3.59;100.00;95610.22;5081635;28;20028;-63
2022/11/29 07:11:51;;;;;;;12.48;11.27;;;;;;;3.58;100.00;95611.16;5079462;28;20021;-64
2022/11/29 07:14:17;;;;;;;10.25;9.35;;;;;;;3.56;100.00;95615.63;5083370;28;20575;-66
2022/11/29 07:17:00;;;;;;;10.20;9.30;;;;;;;3.54;100.00;95617.50;5080252;28;20020;-63
2022/11/29 07:19:37;;;;;;;10.30;9.25;;;;;;;3.55;100.00;95617.41;5083220;28;20555;-61
2022/11/29 07:22:21;;;;;;;27.55;25.23;;;;;;;3.61;100.00;95618.75;5071563;28;20452;-61
2022/11/29 07:24:56;;;;;;;23.50;21.20;;;;;;;3.63;100.00;95614.28;5083757;28;20086;-62
2022/11/29 07:27:30;;;;;;;17.60;16.00;;;;;;;3.61;100.00;95621.34;5090194;28;20031;-61
2022/11/29 07:30:05;;;;;;;25.95;23.65;;;;;;;3.59;100.00;95620.63;5087884;28;20396;-61
2022/11/29 07:32:41;;;;;;;29.40;26.60;;;;;;;3.58;100.00;95621.56;5081830;28;20454;-61
2022/11/29 07:35:16;;;;;;;24.85;22.45;;;;;;;3.56;100.00;95626.88;5075390;28;20035;-59
2022/11/29 07:38:15;;;;;;;18.50;16.92;;;;;;;3.56;100.00;95623.44;5083436;28;20465;-61
2022/11/29 07:40:59;;;;;;;26.95;24.50;;;;;;;3.58;100.00;95625.00;5078731;28;20023;-64
2022/11/29 07:43:37;;;;;;;20.50;17.50;;;;;;;3.67;100.00;95630.53;5079520;28;20108;-63
2022/11/29 07:46:02;;;;;;;35.53;25.00;;;;;;;3.62;100.00;95630.00;5082555;28;20571;-64
2022/11/29 07:48:27;;;;;;;37.45;25.10;;;;;;;3.64;100.00;95628.97;5083990;28;20036;-65
2022/11/29 07:50:54;;;;;;;17.02;13.40;;;;;;;3.56;100.00;95626.88;5082426;28;20405;-65
2022/11/29 07:53:21;;;;;;;16.38;12.43;;;;;;;3.60;100.00;95634.50;5083135;28;20031;-66
2022/11/29 07:55:48;;;;;;;12.10;10.77;;;;;;;3.58;100.00;95631.97;5084913;28;20031;-61
2022/11/29 07:58:16;;;;;;;8.02;7.38;;;;;;;3.59;100.00;95633.66;5085877;28;20028;-69
2022/11/29 08:00:42;;;;;;;8.40;7.60;;;;;;;3.59;100.00;95641.44;5079378;28;20047;-69
2022/11/29 08:03:09;;;;;;;6.30;5.80;;;;;;;3.54;100.00;95633.13;5082665;28;20027;-69
2022/11/29 08:05:35;;;;;;;7.10;6.60;;;;;;;3.52;100.00;95633.19;5081543;28;20025;-69
2022/11/29 08:08:01;;;;;;;5.70;5.30;;;;;;;3.52;100.00;95637.59;5087894;28;20031;-69
2022/11/29 08:10:26;;;;;;;10.82;8.88;;;;;;;3.57;100.00;95636.38;5082085;28;20078;-69
2022/11/29 08:12:52;;;;;;;4.40;4.10;;;;;;;3.51;100.00;95638.53;5088152;28;20028;-69
2022/11/29 08:15:19;;;;;;;2.95;2.75;;;;;;;3.50;100.00;95636.84;5076445;28;20142;-58
2022/11/29 08:17:45;;;;;;;3.13;2.92;;;;;;;3.46;100.00;95641.41;5086104;28;20028;-60
2022/11/29 08:20:11;;;;;;;3.75;3.55;;;;;;;3.52;100.00;95634.97;5081261;28;20032;-61
2022/11/29 08:22:36;;;;;;;4.22;3.92;;;;;;;3.51;100.00;95641.13;5082597;28;20024;-61
2022/11/29 08:25:02;;;;;;;3.65;3.17;;;;;;;3.48;100.00;95646.53;5081561;28;20378;-61
2022/11/29 08:27:28;;;;;;;3.42;3.22;;;;;;;3.53;100.00;95650.50;5069285;28;20417;-61
2022/11/29 08:29:53;;;;;;;3.22;3.03;;;;;;;3.63;100.00;95649.91;5085595;28;20042;-61
2022/11/29 08:32:19;;;;;;;9.73;8.82;;;;;;;3.73;100.00;95649.22;5087167;28;20027;-61
2022/11/29 08:34:44;;;;;;;12.38;11.00;;;;;;;3.71;100.00;95645.03;5085566;28;20044;-60
2022/11/29 08:37:10;;;;;;;13.77;12.38;;;;;;;3.75;100.00;95650.88;5080549;28;20486;-64
2022/11/29 08:39:35;;;;;;;7.65;6.95;;;;;;;3.71;100.00;95651.06;5079770;28;20389;-64
2022/11/29 08:42:00;;;;;;;16.15;13.93;;;;;;;3.71;100.00;95656.28;5084914;28;20050;-64
2022/11/29 08:44:26;;;;;;;9.38;8.18;;;;;;;3.70;100.00;95653.78;5086354;28;20040;-65
2022/11/29 08:49:59;;;;;;;7.63;6.05;;;;;;;3.67;100.00;95661.78;5084317;28;20106;-65
2022/11/29 08:55:05;;;;;;;8.07;6.88;;;;;;;3.69;100.00;95665.13;5083435;28;20413;-61
2022/11/29 08:57:30;;;;;;;11.82;9.38;;;;;;;3.66;100.00;95660.97;5079460;28;20024;-57
2022/11/29 08:59:55;;;;;;;10.07;6.88;;;;;;;3.57;100.00;95666.75;5088733;28;20028;-56
2022/11/29 09:02:21;;;;;;;20.95;14.88;;;;;;;3.55;100.00;95672.06;5084350;28;20477;-58
2022/11/29 09:04:46;;;;;;;10.88;8.63;;;;;;;3.66;100.00;95676.59;5082518;28;20050;-58
2022/11/29 09:07:11;;;;;;;7.28;5.53;;;;;;;3.66;100.00;95668.78;5060404;28;20029;-58
2022/11/29 09:09:37;;;;;;;3.90;3.50;;;;;;;3.68;100.00;95671.25;5086955;28;20023;-57
2022/11/29 09:12:06;;;;;;;8.20;7.40;;;;;;;3.77;100.00;95670.69;5081518;28;20624;-60
2022/11/29 09:14:31;;;;;;;4.90;4.40;;;;;;;3.62;100.00;95674.28;5086835;28;20066;-68
2022/11/29 09:16:56;;;;;;;10.85;8.90;;;;;;;3.55;100.00;95676.44;5084191;28;20446;-60
2022/11/29 09:19:22;;;;;;;11.65;9.10;;;;;;;3.54;100.00;95674.75;5081718;28;20030;-60
2022/11/29 09:21:47;;;;;;;7.28;6.57;;;;;;;3.53;100.00;95683.50;5088479;28;20024;-60
2022/11/29 09:24:13;;;;;;;3.90;3.60;;;;;;;3.52;100.00;95676.63;5085860;28;20390;-59
2022/11/29 09:26:39;;;;;;;5.03;4.65;;;;;;;3.52;100.00;95680.06;5086366;28;20101;-60
2022/11/29 09:29:06;;;;;;;5.32;4.78;;;;;;;3.58;100.00;95684.91;5085158;28;20032;-60
2022/11/29 09:31:32;;;;;;;4.25;3.63;;;;;;;3.57;100.00;95683.22;5085165;28;20445;-62
2022/11/29 09:33:58;;;;;;;9.18;7.07;;;;;;;3.64;100.00;95681.03;5086273;28;20525;-59
2022/11/29 09:36:24;;;;;;;9.57;6.32;;;;;;;3.61;100.00;95691.66;5084756;28;20109;-64
2022/11/29 09:38:49;;;;;;;4.85;4.45;;;;;;;3.63;100.00;95692.38;5087206;28;20020;-64
2022/11/29 09:41:54;;;;;;;5.35;4.85;;;;;;;3.60;100.00;95689.97;5090612;28;20023;-64
2022/11/29 09:44:29;;;;;;;4.18;3.80;;;;;;;3.63;100.00;95699.38;5082055;28;20582;-64
2022/11/29 09:47:19;;;;;;;5.85;3.80;;;;;;;3.58;100.00;95691.84;5082458;28;20059;-64
2022/11/29 09:50:02;;;;;;;4.40;4.03;;;;;;;3.52;100.00;95687.88;5090300;28;20038;-64
2022/11/29 09:52:46;;;;;;;4.63;4.22;;;;;;;3.56;100.00;95699.78;5079614;28;20489;-65
2022/11/29 09:55:35;;;;;;;5.82;5.32;;;;;;;3.49;100.00;95695.06;5083049;28;20042;-61
2022/11/29 09:58:02;;;;;;;3.83;3.53;;;;;;;3.56;100.00;95696.31;5082830;28;20048;-61
2022/11/29 10:00:29;;;;;;;4.88;4.28;;;;;;;3.60;100.00;95695.19;5087415;28;20036;-62
2022/11/29 10:03:09;;;;;;;3.78;3.40;;;;;;;3.58;100.00;95697.06;5088113;28;20032;-61
2022/11/29 10:05:48;;;;;;;2.67;2.47;;;;;;;3.58;100.00;95692.69;5082525;28;20521;-61
2022/11/29 10:08:21;;;;;;;3.10;2.90;;;;;;;3.64;100.00;95693.22;5088266;28;20084;-61
2022/11/29 10:10:49;;;;;;;2.67;2.58;;;;;;;3.64;100.00;95691.44;5089849;28;20055;-67
2022/11/29 10:13:32;;;;;;;2.60;2.40;;;;;;;3.71;100.00;95686.69;5087547;28;20556;-61
2022/11/29 10:16:26;;;;;;;2.25;2.05;;;;;;;3.70;100.00;95688.47;5087569;28;20039;-61
2022/11/29 10:19:03;;;;;;;2.63;2.42;;;;;;;3.64;100.00;95685.41;5079883;28;20063;-61
2022/11/29 10:21:34;;;;;;;2.47;2.25;;;;;;;3.70;100.00;95685.88;5083205;28;20081;-61
2022/11/29 10:24:16;;;;;;;2.40;2.30;;;;;;;3.66;100.00;95687.00;5084233;28;20085;-62
2022/11/29 10:26:42;;;;;;;4.40;3.22;;;;;;;3.62;100.00;95682.91;5075082;28;20448;-61
2022/11/29 10:29:13;;;;;;;3.45;3.25;;;;;;;3.64;100.00;95678.44;5084880;28;20032;-62
2022/11/29 10:31:42;;;;;;;3.72;3.45;;;;;;;3.68;100.00;95673.88;5068391;28;20379;-65
2022/11/29 10:34:19;;;;;;;2.97;2.78;;;;;;;3.63;100.00;95684.56;5086507;28;20048;-69
2022/11/29 10:36:58;;;;;;;2.70;2.50;;;;;;;3.65;100.00;95680.13;5086262;28;20078;-68
2022/11/29 10:39:34;;;;;;;2.50;2.40;;;;;;;3.62;100.00;95682.91;5081537;28;20031;-68
2022/11/29 10:42:02;;;;;;;2.20;2.10;;;;;;;3.64;100.00;95681.03;5085978;28;20028;-69
2022/11/29 10:44:30;;;;;;;1.60;1.60;;;;;;;3.61;100.00;95676.03;5080583;28;20078;-68
2022/11/29 10:46:58;;;;;;;1.95;1.85;;;;;;;3.58;100.00;95684.91;5086123;28;20020;-69
2022/11/29 10:49:31;;;;;;;1.83;1.73;;;;;;;3.65;100.00;95677.53;5082750;28;20036;-61
2022/11/29 10:51:57;;;;;;;2.33;2.22;;;;;;;3.79;100.00;95679.22;5090367;28;20030;-64
2022/11/29 10:54:33;;;;;;;2.28;2.17;;;;;;;3.78;100.00;95676.72;5083391;28;20384;-64
2022/11/29 10:57:00;;;;;;;2.90;2.70;;;;;;;3.89;100.00;95674.25;5084475;28;20058;-64
2022/11/29 10:59:28;;;;;;;2.92;2.72;;;;;;;3.80;100.00;95673.09;5084517;28;20051;-65
2022/11/29 11:01:54;;;;;;;3.10;2.90;;;;;;;3.83;100.00;95674.63;5088893;28;20028;-65
2022/11/29 11:04:30;;;;;;;3.00;2.80;;;;;;;3.82;100.00;95668.59;5085971;28;20397;-65
2022/11/29 11:06:56;;;;;;;;;;;;;;;3.86;100.00;95674.41;5085346;28;20081;-63
2022/11/29 11:09:28;;;;;;;3.53;3.25;;;;;;;3.80;100.00;95662.66;5083539;28;19914;-69
2022/11/29 11:11:57;;;;;;;3.08;2.80;;;;;;;3.79;100.00;95667.97;5083225;28;20409;-64
2022/11/29 11:14:33;;;;;;;3.80;3.50;;;;;;;3.87;100.00;95665.69;5084343;28;20020;-64
2022/11/29 11:17:20;;;;;;;2.67;2.47;;;;;;;3.91;100.00;95668.91;5084651;28;20027;-64
2022/11/29 11:19:59;;;;;;;3.40;3.10;;;;;;;3.96;100.00;95664.22;5081402;28;20028;-62
2022/11/29 11:22:26;;;;;;;2.95;2.80;;;;;;;4.00;100.00;95655.31;5084325;28;20032;-64
2022/11/29 11:24:58;;;;;;;3.17;2.90;;;;;;;3.96;100.00;95664.22;5079436;28;20551;-64
2022/11/29 11:27:33;;;;;;;2.70;2.50;;;;;;;3.95;100.00;95668.63;5081528;28;20394;-59
2022/11/29 11:30:00;;;;;;;2.38;2.28;;;;;;;3.87;100.00;95661.31;5082775;28;20039;-61
2022/11/29 11:32:25;;;;;;;2.67;2.38;;;;;;;3.92;100.00;95668.84;5079441;28;20028;-62
2022/11/29 11:34:54;;;;;;;2.55;2.42;;;;;;;3.90;100.00;95662.03;5076536;28;20466;-62
2022/11/29 11:37:28;;;;;;;2.90;2.70;;;;;;;3.98;100.00;95658.00;5085956;28;20584;-61
2022/11/29 11:39:57;;;;;;;3.00;2.80;;;;;;;4.00;100.00;95657.91;5086229;28;20032;-61
2022/11/29 11:42:37;;;;;;;3.78;3.40;;;;;;;3.97;100.00;95660.69;5078614;28;20012;-61
2022/11/29 11:45:29;;;;;;;2.40;2.30;;;;;;;3.90;100.00;95656.84;5087393;28;20099;-61
2022/11/29 11:47:58;;;;;;;2.40;2.30;;;;;;;3.90;100.00;95655.06;5083039;28;20032;-61
2022/11/29 11:50:55;;;;;;;2.90;2.70;;;;;;;4.14;100.00;95651.78;5076801;28;20059;-68
2022/11/29 11:53:35;;;;;;;3.45;3.25;;;;;;;4.19;100.00;95652.28;5076251;28;20169;-68
2022/11/29 11:56:05;;;;;;;3.30;3.10;;;;;;;4.18;100.00;95647.16;5078283;28;20063;-68
2022/11/29 11:58:38;;;;;;;3.40;3.20;;;;;;;4.27;100.00;95652.59;5078314;28;20104;-67
2022/11/29 12:01:16;;;;;;;3.40;3.20;;;;;;;4.31;100.00;95650.63;5079732;28;20038;-67
2022/11/29 12:03:51;;;;;;;4.97;4.68;;;;;;;4.47;100.00;95647.78;5066291;28;20099;-68
2022/11/29 12:06:37;;;;;;;4.00;3.67;;;;;;;4.41;100.00;95645.63;5080538;28;20162;-66